sensor_id;sensor_type;location;lat;lon;timestamp;P1;durP1;ratioP1;P2;durP2;ratioP2
72408;SDS011;60402;48.082;11.628;2023-03-23T00:00:07;6.35;;;2.00;;
72408;SDS011;60402;48.082;11.628;2023-03-23T00:02:54;4.95;;;1.63;;
72408;SDS011;60402;48.082;11.628;2023-03-23T00:05:40;4.60;;;1.90;;
72408;SDS011;60402;48.082;11.628;2023-03-23T00:08:38;4.13;;;1.67;;
72408;SDS011;60402;48.082;11.628;2023-03-23T00:11:31;4.85;;;2.10;;
72408;SDS011;60402;48.082;11.628;2023-03-23T00:14:17;4.20;;;2.10;;
72408;SDS011;60402;48.082;11.628;2023-03-23T00:17:08;4.50;;;1.83;;
72408;SDS011;60402;48.082;11.628;2023-03-23T00:19:59;5.32;;;1.90;;
72408;SDS011;60402;48.082;11.628;2023-03-23T00:22:46;5.03;;;1.77;;
72408;SDS011;60402;48.082;11.628;2023-03-23T00:25:32;4.00;;;1.70;;
72408;SDS011;60402;48.082;11.628;2023-03-23T00:28:18;5.20;;;2.17;;
72408;SDS011;60402;48.082;11.628;2023-03-23T00:31:09;4.53;;;1.88;;
72408;SDS011;60402;48.082;11.628;2023-03-23T00:33:55;5.00;;;1.77;;
72408;SDS011;60402;48.082;11.628;2023-03-23T00:36:41;4.25;;;1.67;;
72408;SDS011;60402;48.082;11.628;2023-03-23T00:39:28;5.30;;;1.77;;
72408;SDS011;60402;48.082;11.628;2023-03-23T00:42:14;4.60;;;1.95;;
72408;SDS011;60402;48.082;11.628;2023-03-23T00:45:01;4.93;;;1.73;;
72408;SDS011;60402;48.082;11.628;2023-03-23T00:47:49;5.28;;;1.95;;
72408;SDS011;60402;48.082;11.628;2023-03-23T00:50:36;3.85;;;1.80;;
72408;SDS011;60402;48.082;11.628;2023-03-23T00:53:21;3.63;;;1.60;;
72408;SDS011;60402;48.082;11.628;2023-03-23T00:56:08;3.47;;;1.55;;
72408;SDS011;60402;48.082;11.628;2023-03-23T00:58:54;4.20;;;2.00;;
72408;SDS011;60402;48.082;11.628;2023-03-23T01:01:40;3.53;;;1.55;;
72408;SDS011;60402;48.082;11.628;2023-03-23T01:04:26;5.50;;;1.98;;
72408;SDS011;60402;48.082;11.628;2023-03-23T01:07:13;6.40;;;2.25;;
72408;SDS011;60402;48.082;11.628;2023-03-23T01:09:59;4.35;;;1.95;;
72408;SDS011;60402;48.082;11.628;2023-03-23T01:12:45;4.72;;;1.75;;
72408;SDS011;60402;48.082;11.628;2023-03-23T01:15:31;4.70;;;2.05;;
72408;SDS011;60402;48.082;11.628;2023-03-23T01:18:17;4.22;;;1.52;;
72408;SDS011;60402;48.082;11.628;2023-03-23T01:21:09;5.90;;;1.83;;
72408;SDS011;60402;48.082;11.628;2023-03-23T01:23:57;4.45;;;1.92;;
72408;SDS011;60402;48.082;11.628;2023-03-23T01:26:43;3.25;;;1.67;;
72408;SDS011;60402;48.082;11.628;2023-03-23T01:29:28;4.75;;;2.00;;
72408;SDS011;60402;48.082;11.628;2023-03-23T01:32:14;5.30;;;1.95;;
72408;SDS011;60402;48.082;11.628;2023-03-23T01:35:00;4.13;;;1.92;;
72408;SDS011;60402;48.082;11.628;2023-03-23T01:37:46;5.45;;;2.03;;
72408;SDS011;60402;48.082;11.628;2023-03-23T01:40:32;3.22;;;1.63;;
72408;SDS011;60402;48.082;11.628;2023-03-23T01:43:18;4.13;;;1.58;;
72408;SDS011;60402;48.082;11.628;2023-03-23T01:46:04;4.50;;;1.90;;
72408;SDS011;60402;48.082;11.628;2023-03-23T01:48:49;6.00;;;2.00;;
72408;SDS011;60402;48.082;11.628;2023-03-23T01:51:37;4.22;;;1.70;;
72408;SDS011;60402;48.082;11.628;2023-03-23T01:54:27;3.55;;;1.55;;
72408;SDS011;60402;48.082;11.628;2023-03-23T01:57:15;5.72;;;1.85;;
72408;SDS011;60402;48.082;11.628;2023-03-23T02:00:04;4.43;;;1.52;;
72408;SDS011;60402;48.082;11.628;2023-03-23T02:02:55;3.85;;;1.75;;
72408;SDS011;60402;48.082;11.628;2023-03-23T02:05:42;3.58;;;1.70;;
72408;SDS011;60402;48.082;11.628;2023-03-23T02:08:28;6.10;;;1.70;;
72408;SDS011;60402;48.082;11.628;2023-03-23T02:11:19;3.38;;;1.67;;
72408;SDS011;60402;48.082;11.628;2023-03-23T02:14:06;4.82;;;2.00;;
72408;SDS011;60402;48.082;11.628;2023-03-23T02:23:14;3.97;;;1.95;;
72408;SDS011;60402;48.082;11.628;2023-03-23T02:32:02;3.90;;;1.60;;
72408;SDS011;60402;48.082;11.628;2023-03-23T02:34:59;4.63;;;1.67;;
72408;SDS011;60402;48.082;11.628;2023-03-23T02:37:52;3.63;;;1.67;;
72408;SDS011;60402;48.082;11.628;2023-03-23T02:40:46;5.40;;;1.80;;
72408;SDS011;60402;48.082;11.628;2023-03-23T02:43:36;3.13;;;1.50;;
72408;SDS011;60402;48.082;11.628;2023-03-23T02:46:26;4.45;;;1.80;;
72408;SDS011;60402;48.082;11.628;2023-03-23T02:49:13;4.13;;;1.67;;
72408;SDS011;60402;48.082;11.628;2023-03-23T02:52:02;5.18;;;1.75;;
72408;SDS011;60402;48.082;11.628;2023-03-23T02:54:52;3.83;;;1.52;;
72408;SDS011;60402;48.082;11.628;2023-03-23T02:57:40;5.43;;;2.17;;
72408;SDS011;60402;48.082;11.628;2023-03-23T03:00:25;3.63;;;1.60;;
72408;SDS011;60402;48.082;11.628;2023-03-23T03:03:13;3.13;;;1.67;;
72408;SDS011;60402;48.082;11.628;2023-03-23T03:06:09;4.78;;;1.85;;
72408;SDS011;60402;48.082;11.628;2023-03-23T03:09:20;3.53;;;1.50;;
72408;SDS011;60402;48.082;11.628;2023-03-23T03:12:09;3.97;;;1.70;;
72408;SDS011;60402;48.082;11.628;2023-03-23T03:15:09;3.15;;;1.45;;
72408;SDS011;60402;48.082;11.628;2023-03-23T03:18:19;5.10;;;1.80;;
72408;SDS011;60402;48.082;11.628;2023-03-23T03:21:09;3.90;;;1.67;;
72408;SDS011;60402;48.082;11.628;2023-03-23T03:24:00;3.75;;;1.60;;
72408;SDS011;60402;48.082;11.628;2023-03-23T03:26:48;3.85;;;1.67;;
72408;SDS011;60402;48.082;11.628;2023-03-23T03:29:37;6.05;;;1.70;;
72408;SDS011;60402;48.082;11.628;2023-03-23T03:32:29;5.10;;;1.85;;
72408;SDS011;60402;48.082;11.628;2023-03-23T03:35:22;3.53;;;1.73;;
72408;SDS011;60402;48.082;11.628;2023-03-23T03:38:09;3.38;;;1.67;;
72408;SDS011;60402;48.082;11.628;2023-03-23T03:40:56;3.83;;;1.60;;
72408;SDS011;60402;48.082;11.628;2023-03-23T03:43:42;3.72;;;1.58;;
72408;SDS011;60402;48.082;11.628;2023-03-23T03:46:28;3.20;;;1.63;;
72408;SDS011;60402;48.082;11.628;2023-03-23T03:49:16;5.65;;;1.70;;
72408;SDS011;60402;48.082;11.628;2023-03-23T03:52:01;3.72;;;1.50;;
72408;SDS011;60402;48.082;11.628;2023-03-23T03:54:47;3.83;;;1.80;;
72408;SDS011;60402;48.082;11.628;2023-03-23T03:57:33;3.78;;;1.35;;
72408;SDS011;60402;48.082;11.628;2023-03-23T04:00:20;3.50;;;1.45;;
72408;SDS011;60402;48.082;11.628;2023-03-23T04:03:06;3.95;;;1.35;;
72408;SDS011;60402;48.082;11.628;2023-03-23T04:05:53;3.85;;;1.75;;
72408;SDS011;60402;48.082;11.628;2023-03-23T04:08:40;2.53;;;1.23;;
72408;SDS011;60402;48.082;11.628;2023-03-23T04:11:28;3.08;;;1.38;;
72408;SDS011;60402;48.082;11.628;2023-03-23T04:14:13;4.05;;;1.50;;
72408;SDS011;60402;48.082;11.628;2023-03-23T04:16:59;3.90;;;1.50;;
72408;SDS011;60402;48.082;11.628;2023-03-23T04:19:48;3.60;;;1.48;;
72408;SDS011;60402;48.082;11.628;2023-03-23T04:22:33;3.17;;;1.30;;
72408;SDS011;60402;48.082;11.628;2023-03-23T04:25:19;3.33;;;1.65;;
72408;SDS011;60402;48.082;11.628;2023-03-23T04:28:08;6.15;;;1.67;;
72408;SDS011;60402;48.082;11.628;2023-03-23T04:30:55;2.97;;;1.27;;
72408;SDS011;60402;48.082;11.628;2023-03-23T04:33:41;4.03;;;1.30;;
72408;SDS011;60402;48.082;11.628;2023-03-23T04:36:27;3.60;;;1.23;;
72408;SDS011;60402;48.082;11.628;2023-03-23T04:39:14;3.80;;;1.70;;
72408;SDS011;60402;48.082;11.628;2023-03-23T04:42:01;3.63;;;1.83;;
72408;SDS011;60402;48.082;11.628;2023-03-23T04:44:47;3.45;;;1.35;;
72408;SDS011;60402;48.082;11.628;2023-03-23T04:47:40;3.25;;;1.30;;
72408;SDS011;60402;48.082;11.628;2023-03-23T04:50:28;2.95;;;1.40;;
72408;SDS011;60402;48.082;11.628;2023-03-23T04:53:16;2.30;;;1.42;;
72408;SDS011;60402;48.082;11.628;2023-03-23T04:56:03;2.78;;;1.10;;
72408;SDS011;60402;48.082;11.628;2023-03-23T04:58:49;5.45;;;1.55;;
72408;SDS011;60402;48.082;11.628;2023-03-23T05:01:35;3.58;;;1.58;;
72408;SDS011;60402;48.082;11.628;2023-03-23T05:04:22;3.25;;;1.50;;
72408;SDS011;60402;48.082;11.628;2023-03-23T05:07:10;5.35;;;1.48;;
72408;SDS011;60402;48.082;11.628;2023-03-23T05:09:56;3.42;;;1.58;;
72408;SDS011;60402;48.082;11.628;2023-03-23T05:12:42;2.90;;;1.40;;
72408;SDS011;60402;48.082;11.628;2023-03-23T05:15:29;4.35;;;1.60;;
72408;SDS011;60402;48.082;11.628;2023-03-23T05:18:15;2.85;;;1.30;;
72408;SDS011;60402;48.082;11.628;2023-03-23T05:21:02;5.47;;;1.80;;
72408;SDS011;60402;48.082;11.628;2023-03-23T05:23:48;4.00;;;1.60;;
72408;SDS011;60402;48.082;11.628;2023-03-23T05:26:40;3.60;;;1.50;;
72408;SDS011;60402;48.082;11.628;2023-03-23T05:29:25;3.17;;;1.58;;
72408;SDS011;60402;48.082;11.628;2023-03-23T05:32:12;3.50;;;1.60;;
72408;SDS011;60402;48.082;11.628;2023-03-23T05:34:58;3.65;;;1.55;;
72408;SDS011;60402;48.082;11.628;2023-03-23T05:37:45;5.03;;;1.55;;
72408;SDS011;60402;48.082;11.628;2023-03-23T05:40:31;3.60;;;1.48;;
72408;SDS011;60402;48.082;11.628;2023-03-23T05:43:16;4.88;;;1.65;;
72408;SDS011;60402;48.082;11.628;2023-03-23T05:46:02;3.55;;;1.25;;
72408;SDS011;60402;48.082;11.628;2023-03-23T05:48:48;2.88;;;1.02;;
72408;SDS011;60402;48.082;11.628;2023-03-23T05:51:33;7.03;;;1.63;;
72408;SDS011;60402;48.082;11.628;2023-03-23T05:54:20;4.72;;;1.65;;
72408;SDS011;60402;48.082;11.628;2023-03-23T05:57:05;4.13;;;1.67;;
72408;SDS011;60402;48.082;11.628;2023-03-23T05:59:51;4.65;;;1.45;;
72408;SDS011;60402;48.082;11.628;2023-03-23T06:02:37;3.60;;;1.60;;
72408;SDS011;60402;48.082;11.628;2023-03-23T06:05:23;8.65;;;1.70;;
72408;SDS011;60402;48.082;11.628;2023-03-23T06:08:11;4.78;;;1.70;;
72408;SDS011;60402;48.082;11.628;2023-03-23T06:10:57;3.53;;;1.50;;
72408;SDS011;60402;48.082;11.628;2023-03-23T06:13:43;4.45;;;2.00;;
72408;SDS011;60402;48.082;11.628;2023-03-23T06:16:29;4.47;;;1.60;;
72408;SDS011;60402;48.082;11.628;2023-03-23T06:19:15;3.90;;;1.75;;
72408;SDS011;60402;48.082;11.628;2023-03-23T06:22:00;2.75;;;1.50;;
72408;SDS011;60402;48.082;11.628;2023-03-23T06:24:47;3.53;;;1.42;;
72408;SDS011;60402;48.082;11.628;2023-03-23T06:27:34;4.88;;;1.70;;
72408;SDS011;60402;48.082;11.628;2023-03-23T06:30:20;2.70;;;1.50;;
72408;SDS011;60402;48.082;11.628;2023-03-23T06:33:06;4.68;;;1.55;;
72408;SDS011;60402;48.082;11.628;2023-03-23T06:35:54;5.00;;;1.70;;
72408;SDS011;60402;48.082;11.628;2023-03-23T06:38:41;4.93;;;2.05;;
72408;SDS011;60402;48.082;11.628;2023-03-23T06:41:27;3.30;;;1.83;;
72408;SDS011;60402;48.082;11.628;2023-03-23T06:44:13;4.05;;;1.27;;
72408;SDS011;60402;48.082;11.628;2023-03-23T06:46:59;4.13;;;1.40;;
72408;SDS011;60402;48.082;11.628;2023-03-23T06:49:44;5.55;;;1.45;;
72408;SDS011;60402;48.082;11.628;2023-03-23T06:52:30;6.07;;;1.30;;
72408;SDS011;60402;48.082;11.628;2023-03-23T06:55:19;4.25;;;1.45;;
72408;SDS011;60402;48.082;11.628;2023-03-23T06:58:05;4.40;;;1.35;;
72408;SDS011;60402;48.082;11.628;2023-03-23T07:00:54;3.95;;;1.60;;
72408;SDS011;60402;48.082;11.628;2023-03-23T07:03:44;3.70;;;1.70;;
72408;SDS011;60402;48.082;11.628;2023-03-23T07:06:31;4.22;;;1.58;;
72408;SDS011;60402;48.082;11.628;2023-03-23T07:09:17;3.33;;;1.50;;
72408;SDS011;60402;48.082;11.628;2023-03-23T07:12:02;3.65;;;1.50;;
72408;SDS011;60402;48.082;11.628;2023-03-23T07:14:48;2.50;;;1.20;;
72408;SDS011;60402;48.082;11.628;2023-03-23T07:17:34;4.13;;;1.42;;
72408;SDS011;60402;48.082;11.628;2023-03-23T07:20:19;2.63;;;1.60;;
72408;SDS011;60402;48.082;11.628;2023-03-23T07:23:05;2.58;;;1.30;;
72408;SDS011;60402;48.082;11.628;2023-03-23T07:25:51;3.45;;;1.45;;
72408;SDS011;60402;48.082;11.628;2023-03-23T07:28:37;4.47;;;1.70;;
72408;SDS011;60402;48.082;11.628;2023-03-23T07:31:23;5.00;;;1.63;;
72408;SDS011;60402;48.082;11.628;2023-03-23T07:34:09;9.65;;;1.88;;
72408;SDS011;60402;48.082;11.628;2023-03-23T07:36:54;4.07;;;1.70;;
72408;SDS011;60402;48.082;11.628;2023-03-23T07:39:41;3.95;;;1.75;;
72408;SDS011;60402;48.082;11.628;2023-03-23T07:42:27;3.40;;;1.40;;
72408;SDS011;60402;48.082;11.628;2023-03-23T07:45:13;6.18;;;1.60;;
72408;SDS011;60402;48.082;11.628;2023-03-23T07:47:59;3.90;;;1.48;;
72408;SDS011;60402;48.082;11.628;2023-03-23T07:50:45;3.55;;;1.70;;
72408;SDS011;60402;48.082;11.628;2023-03-23T07:53:32;7.03;;;1.77;;
72408;SDS011;60402;48.082;11.628;2023-03-23T07:56:18;3.72;;;1.60;;
72408;SDS011;60402;48.082;11.628;2023-03-23T07:59:05;3.72;;;1.77;;
72408;SDS011;60402;48.082;11.628;2023-03-23T08:01:54;3.97;;;1.67;;
72408;SDS011;60402;48.082;11.628;2023-03-23T08:04:39;4.65;;;1.60;;
72408;SDS011;60402;48.082;11.628;2023-03-23T08:07:25;3.50;;;1.75;;
72408;SDS011;60402;48.082;11.628;2023-03-23T08:10:12;3.65;;;1.60;;
72408;SDS011;60402;48.082;11.628;2023-03-23T08:12:58;4.22;;;1.70;;
72408;SDS011;60402;48.082;11.628;2023-03-23T08:15:45;3.47;;;1.70;;
72408;SDS011;60402;48.082;11.628;2023-03-23T08:18:31;3.65;;;1.50;;
72408;SDS011;60402;48.082;11.628;2023-03-23T08:21:17;4.03;;;1.40;;
72408;SDS011;60402;48.082;11.628;2023-03-23T08:24:03;3.95;;;1.70;;
72408;SDS011;60402;48.082;11.628;2023-03-23T08:26:50;3.42;;;1.73;;
72408;SDS011;60402;48.082;11.628;2023-03-23T08:29:36;3.70;;;1.83;;
72408;SDS011;60402;48.082;11.628;2023-03-23T08:32:23;2.90;;;1.35;;
72408;SDS011;60402;48.082;11.628;2023-03-23T08:35:09;3.80;;;1.60;;
72408;SDS011;60402;48.082;11.628;2023-03-23T08:37:56;5.63;;;1.63;;
72408;SDS011;60402;48.082;11.628;2023-03-23T08:40:42;2.75;;;1.55;;
72408;SDS011;60402;48.082;11.628;2023-03-23T08:43:29;2.65;;;1.42;;
72408;SDS011;60402;48.082;11.628;2023-03-23T08:46:14;3.05;;;1.40;;
72408;SDS011;60402;48.082;11.628;2023-03-23T08:49:00;3.33;;;1.65;;
72408;SDS011;60402;48.082;11.628;2023-03-23T08:51:46;3.85;;;1.48;;
72408;SDS011;60402;48.082;11.628;2023-03-23T08:54:31;6.25;;;1.63;;
72408;SDS011;60402;48.082;11.628;2023-03-23T08:57:17;3.33;;;1.42;;
72408;SDS011;60402;48.082;11.628;2023-03-23T09:00:04;2.83;;;1.42;;
72408;SDS011;60402;48.082;11.628;2023-03-23T09:03:03;6.20;;;1.60;;
72408;SDS011;60402;48.082;11.628;2023-03-23T09:05:49;4.40;;;1.70;;
72408;SDS011;60402;48.082;11.628;2023-03-23T09:08:35;3.67;;;1.60;;
72408;SDS011;60402;48.082;11.628;2023-03-23T09:11:20;3.80;;;1.45;;
72408;SDS011;60402;48.082;11.628;2023-03-23T09:14:07;5.30;;;2.28;;
72408;SDS011;60402;48.082;11.628;2023-03-23T09:16:53;4.43;;;1.80;;
72408;SDS011;60402;48.082;11.628;2023-03-23T09:19:39;3.45;;;1.60;;
72408;SDS011;60402;48.082;11.628;2023-03-23T09:22:25;3.30;;;1.48;;
72408;SDS011;60402;48.082;11.628;2023-03-23T09:25:13;2.88;;;1.35;;
72408;SDS011;60402;48.082;11.628;2023-03-23T09:28:00;3.70;;;1.60;;
72408;SDS011;60402;48.082;11.628;2023-03-23T09:30:46;3.92;;;1.85;;
72408;SDS011;60402;48.082;11.628;2023-03-23T09:33:32;2.95;;;1.73;;
72408;SDS011;60402;48.082;11.628;2023-03-23T09:36:19;3.72;;;1.50;;
72408;SDS011;60402;48.082;11.628;2023-03-23T09:39:06;4.35;;;2.00;;
72408;SDS011;60402;48.082;11.628;2023-03-23T09:45:06;7.70;;;1.70;;
72408;SDS011;60402;48.082;11.628;2023-03-23T09:54:36;7.63;;;1.80;;
72408;SDS011;60402;48.082;11.628;2023-03-23T10:00:26;6.00;;;2.00;;
72408;SDS011;60402;48.082;11.628;2023-03-23T10:03:18;4.82;;;1.50;;
72408;SDS011;60402;48.082;11.628;2023-03-23T10:06:08;5.22;;;1.95;;
72408;SDS011;60402;48.082;11.628;2023-03-23T10:08:56;6.95;;;2.08;;
72408;SDS011;60402;48.082;11.628;2023-03-23T10:17:50;5.93;;;2.20;;
72408;SDS011;60402;48.082;11.628;2023-03-23T10:20:51;5.28;;;2.10;;
72408;SDS011;60402;48.082;11.628;2023-03-23T10:27:04;5.10;;;2.00;;
72408;SDS011;60402;48.082;11.628;2023-03-23T10:30:25;4.90;;;2.25;;
72408;SDS011;60402;48.082;11.628;2023-03-23T10:36:16;5.38;;;1.80;;
72408;SDS011;60402;48.082;11.628;2023-03-23T10:39:13;4.88;;;1.80;;
72408;SDS011;60402;48.082;11.628;2023-03-23T10:42:05;4.82;;;2.17;;
72408;SDS011;60402;48.082;11.628;2023-03-23T10:47:39;4.70;;;2.10;;
72408;SDS011;60402;48.082;11.628;2023-03-23T10:50:31;6.22;;;2.08;;
72408;SDS011;60402;48.082;11.628;2023-03-23T10:53:21;7.68;;;2.70;;
72408;SDS011;60402;48.082;11.628;2023-03-23T10:56:47;6.97;;;2.83;;
72408;SDS011;60402;48.082;11.628;2023-03-23T10:59:31;8.13;;;3.33;;
72408;SDS011;60402;48.082;11.628;2023-03-23T11:02:19;4.32;;;1.80;;
72408;SDS011;60402;48.082;11.628;2023-03-23T11:05:07;6.32;;;2.50;;
72408;SDS011;60402;48.082;11.628;2023-03-23T11:08:27;4.85;;;2.42;;
72408;SDS011;60402;48.082;11.628;2023-03-23T11:14:17;6.35;;;2.60;;
72408;SDS011;60402;48.082;11.628;2023-03-23T11:17:23;6.13;;;2.60;;
72408;SDS011;60402;48.082;11.628;2023-03-23T11:20:11;7.90;;;2.67;;
72408;SDS011;60402;48.082;11.628;2023-03-23T11:22:57;8.35;;;2.88;;
72408;SDS011;60402;48.082;11.628;2023-03-23T11:26:19;6.32;;;2.67;;
72408;SDS011;60402;48.082;11.628;2023-03-23T11:29:12;4.70;;;2.55;;
72408;SDS011;60402;48.082;11.628;2023-03-23T11:34:44;6.28;;;2.55;;
72408;SDS011;60402;48.082;11.628;2023-03-23T11:37:34;5.63;;;2.40;;
72408;SDS011;60402;48.082;11.628;2023-03-23T11:40:26;6.35;;;2.40;;
72408;SDS011;60402;48.082;11.628;2023-03-23T11:43:17;8.23;;;2.70;;
72408;SDS011;60402;48.082;11.628;2023-03-23T11:46:08;6.45;;;2.60;;
72408;SDS011;60402;48.082;11.628;2023-03-23T11:49:01;5.57;;;2.40;;
72408;SDS011;60402;48.082;11.628;2023-03-23T11:51:58;6.00;;;2.42;;
72408;SDS011;60402;48.082;11.628;2023-03-23T11:54:51;6.32;;;2.60;;
72408;SDS011;60402;48.082;11.628;2023-03-23T11:57:41;7.93;;;2.65;;
72408;SDS011;60402;48.082;11.628;2023-03-23T12:00:27;5.35;;;2.30;;
72408;SDS011;60402;48.082;11.628;2023-03-23T12:10:08;7.43;;;3.22;;
72408;SDS011;60402;48.082;11.628;2023-03-23T12:12:59;5.90;;;3.03;;
72408;SDS011;60402;48.082;11.628;2023-03-23T12:16:04;6.28;;;2.50;;
72408;SDS011;60402;48.082;11.628;2023-03-23T12:25:04;6.18;;;2.45;;
72408;SDS011;60402;48.082;11.628;2023-03-23T12:41:12;6.45;;;2.38;;
72408;SDS011;60402;48.082;11.628;2023-03-23T12:43:47;6.45;;;2.08;;
72408;SDS011;60402;48.082;11.628;2023-03-23T12:49:46;5.80;;;1.80;;
72408;SDS011;60402;48.082;11.628;2023-03-23T12:52:42;4.30;;;1.90;;
72408;SDS011;60402;48.082;11.628;2023-03-23T12:55:39;4.55;;;1.50;;
72408;SDS011;60402;48.082;11.628;2023-03-23T12:58:29;4.45;;;1.48;;
72408;SDS011;60402;48.082;11.628;2023-03-23T13:01:22;3.42;;;1.50;;
72408;SDS011;60402;48.082;11.628;2023-03-23T13:04:19;3.92;;;1.40;;
72408;SDS011;60402;48.082;11.628;2023-03-23T13:07:09;4.43;;;1.60;;
72408;SDS011;60402;48.082;11.628;2023-03-23T13:10:05;2.00;;;1.15;;
72408;SDS011;60402;48.082;11.628;2023-03-23T13:12:59;3.65;;;1.50;;
72408;SDS011;60402;48.082;11.628;2023-03-23T13:18:47;3.25;;;1.20;;
72408;SDS011;60402;48.082;11.628;2023-03-23T13:24:53;4.78;;;1.50;;
72408;SDS011;60402;48.082;11.628;2023-03-23T13:27:41;2.67;;;1.10;;
72408;SDS011;60402;48.082;11.628;2023-03-23T13:30:27;3.08;;;1.20;;
72408;SDS011;60402;48.082;11.628;2023-03-23T13:33:14;2.97;;;1.23;;
72408;SDS011;60402;48.082;11.628;2023-03-23T13:36:04;3.67;;;1.38;;
72408;SDS011;60402;48.082;11.628;2023-03-23T13:38:55;3.80;;;1.40;;
72408;SDS011;60402;48.082;11.628;2023-03-23T13:41:47;3.17;;;1.15;;
72408;SDS011;60402;48.082;11.628;2023-03-23T13:47:39;3.05;;;1.33;;
72408;SDS011;60402;48.082;11.628;2023-03-23T13:50:27;2.15;;;1.02;;
72408;SDS011;60402;48.082;11.628;2023-03-23T13:53:21;1.88;;;1.08;;
72408;SDS011;60402;48.082;11.628;2023-03-23T14:02:32;2.85;;;1.02;;
72408;SDS011;60402;48.082;11.628;2023-03-23T14:05:27;2.45;;;1.20;;
72408;SDS011;60402;48.082;11.628;2023-03-23T14:11:11;2.30;;;1.20;;
72408;SDS011;60402;48.082;11.628;2023-03-23T14:16:49;4.65;;;1.50;;
72408;SDS011;60402;48.082;11.628;2023-03-23T14:19:38;4.85;;;1.60;;
72408;SDS011;60402;48.082;11.628;2023-03-23T14:22:26;3.30;;;1.30;;
72408;SDS011;60402;48.082;11.628;2023-03-23T14:25:18;4.63;;;1.27;;
72408;SDS011;60402;48.082;11.628;2023-03-23T14:28:15;3.03;;;1.30;;
72408;SDS011;60402;48.082;11.628;2023-03-23T14:31:02;3.78;;;1.13;;
72408;SDS011;60402;48.082;11.628;2023-03-23T14:33:49;3.40;;;1.38;;
72408;SDS011;60402;48.082;11.628;2023-03-23T14:36:36;4.75;;;1.40;;
72408;SDS011;60402;48.082;11.628;2023-03-23T14:39:26;2.67;;;1.35;;
72408;SDS011;60402;48.082;11.628;2023-03-23T14:42:14;3.60;;;1.30;;
72408;SDS011;60402;48.082;11.628;2023-03-23T14:45:03;4.22;;;1.35;;
72408;SDS011;60402;48.082;11.628;2023-03-23T14:51:21;3.63;;;1.15;;
72408;SDS011;60402;48.082;11.628;2023-03-23T14:53:50;3.65;;;1.27;;
72408;SDS011;60402;48.082;11.628;2023-03-23T14:56:38;3.58;;;1.27;;
72408;SDS011;60402;48.082;11.628;2023-03-23T14:59:25;2.30;;;1.15;;
72408;SDS011;60402;48.082;11.628;2023-03-23T15:02:11;3.38;;;1.25;;
72408;SDS011;60402;48.082;11.628;2023-03-23T15:05:06;3.47;;;1.27;;
72408;SDS011;60402;48.082;11.628;2023-03-23T15:08:03;3.92;;;1.35;;
72408;SDS011;60402;48.082;11.628;2023-03-23T15:11:05;2.63;;;1.20;;
72408;SDS011;60402;48.082;11.628;2023-03-23T15:13:57;3.60;;;1.38;;
72408;SDS011;60402;48.082;11.628;2023-03-23T15:16:49;3.75;;;1.20;;
72408;SDS011;60402;48.082;11.628;2023-03-23T15:19:41;2.92;;;1.20;;
72408;SDS011;60402;48.082;11.628;2023-03-23T15:22:29;2.85;;;1.20;;
72408;SDS011;60402;48.082;11.628;2023-03-23T15:25:23;4.03;;;1.25;;
72408;SDS011;60402;48.082;11.628;2023-03-23T15:28:31;2.58;;;1.17;;
72408;SDS011;60402;48.082;11.628;2023-03-23T15:31:18;3.22;;;1.10;;
72408;SDS011;60402;48.082;11.628;2023-03-23T15:34:11;3.08;;;1.40;;
72408;SDS011;60402;48.082;11.628;2023-03-23T15:37:02;2.55;;;1.10;;
72408;SDS011;60402;48.082;11.628;2023-03-23T15:39:50;2.60;;;1.15;;
72408;SDS011;60402;48.082;11.628;2023-03-23T15:42:36;4.28;;;1.30;;
72408;SDS011;60402;48.082;11.628;2023-03-23T15:45:24;3.28;;;1.38;;
72408;SDS011;60402;48.082;11.628;2023-03-23T15:48:12;3.33;;;1.17;;
72408;SDS011;60402;48.082;11.628;2023-03-23T15:50:58;2.85;;;1.35;;
72408;SDS011;60402;48.082;11.628;2023-03-23T15:53:44;3.53;;;1.27;;
72408;SDS011;60402;48.082;11.628;2023-03-23T15:56:30;4.38;;;1.50;;
72408;SDS011;60402;48.082;11.628;2023-03-23T15:59:16;2.28;;;1.08;;
72408;SDS011;60402;48.082;11.628;2023-03-23T16:02:02;3.03;;;1.40;;
72408;SDS011;60402;48.082;11.628;2023-03-23T16:04:48;3.42;;;1.30;;
72408;SDS011;60402;48.082;11.628;2023-03-23T16:07:35;3.72;;;1.50;;
72408;SDS011;60402;48.082;11.628;2023-03-23T16:10:22;3.30;;;1.40;;
72408;SDS011;60402;48.082;11.628;2023-03-23T16:13:08;3.35;;;1.60;;
72408;SDS011;60402;48.082;11.628;2023-03-23T16:15:54;2.63;;;1.33;;
72408;SDS011;60402;48.082;11.628;2023-03-23T16:18:40;3.35;;;1.30;;
72408;SDS011;60402;48.082;11.628;2023-03-23T16:21:26;2.55;;;1.20;;
72408;SDS011;60402;48.082;11.628;2023-03-23T16:24:11;2.90;;;1.10;;
72408;SDS011;60402;48.082;11.628;2023-03-23T16:26:57;3.95;;;1.50;;
72408;SDS011;60402;48.082;11.628;2023-03-23T16:29:43;3.58;;;1.42;;
72408;SDS011;60402;48.082;11.628;2023-03-23T16:32:28;5.35;;;1.60;;
72408;SDS011;60402;48.082;11.628;2023-03-23T16:35:14;3.97;;;1.50;;
72408;SDS011;60402;48.082;11.628;2023-03-23T16:38:00;2.72;;;1.40;;
72408;SDS011;60402;48.082;11.628;2023-03-23T16:40:46;2.90;;;1.45;;
72408;SDS011;60402;48.082;11.628;2023-03-23T16:43:32;3.65;;;1.50;;
72408;SDS011;60402;48.082;11.628;2023-03-23T16:46:18;3.70;;;1.38;;
72408;SDS011;60402;48.082;11.628;2023-03-23T16:49:04;4.18;;;1.50;;
72408;SDS011;60402;48.082;11.628;2023-03-23T16:51:50;2.63;;;1.30;;
72408;SDS011;60402;48.082;11.628;2023-03-23T16:54:36;2.60;;;1.10;;
72408;SDS011;60402;48.082;11.628;2023-03-23T16:57:21;3.70;;;1.60;;
72408;SDS011;60402;48.082;11.628;2023-03-23T17:00:08;3.67;;;1.50;;
72408;SDS011;60402;48.082;11.628;2023-03-23T17:02:57;4.20;;;1.50;;
72408;SDS011;60402;48.082;11.628;2023-03-23T17:05:43;5.25;;;1.50;;
72408;SDS011;60402;48.082;11.628;2023-03-23T17:08:29;5.70;;;1.42;;
72408;SDS011;60402;48.082;11.628;2023-03-23T17:11:15;4.30;;;1.77;;
72408;SDS011;60402;48.082;11.628;2023-03-23T17:14:00;4.35;;;1.60;;
72408;SDS011;60402;48.082;11.628;2023-03-23T17:16:46;3.72;;;1.75;;
72408;SDS011;60402;48.082;11.628;2023-03-23T17:19:32;3.13;;;1.60;;
72408;SDS011;60402;48.082;11.628;2023-03-23T17:22:17;4.75;;;1.52;;
72408;SDS011;60402;48.082;11.628;2023-03-23T17:25:03;5.78;;;2.13;;
72408;SDS011;60402;48.082;11.628;2023-03-23T17:27:50;5.88;;;2.25;;
72408;SDS011;60402;48.082;11.628;2023-03-23T17:30:38;7.07;;;2.38;;
72408;SDS011;60402;48.082;11.628;2023-03-23T17:33:25;6.38;;;2.47;;
72408;SDS011;60402;48.082;11.628;2023-03-23T17:36:11;5.43;;;2.40;;
72408;SDS011;60402;48.082;11.628;2023-03-23T17:38:56;4.18;;;1.92;;
72408;SDS011;60402;48.082;11.628;2023-03-23T17:41:42;4.70;;;2.55;;
72408;SDS011;60402;48.082;11.628;2023-03-23T17:44:28;3.58;;;1.60;;
72408;SDS011;60402;48.082;11.628;2023-03-23T17:47:13;4.18;;;1.77;;
72408;SDS011;60402;48.082;11.628;2023-03-23T17:49:59;5.50;;;1.85;;
72408;SDS011;60402;48.082;11.628;2023-03-23T17:52:45;4.20;;;1.58;;
72408;SDS011;60402;48.082;11.628;2023-03-23T17:55:31;4.43;;;1.70;;
72408;SDS011;60402;48.082;11.628;2023-03-23T17:58:17;5.28;;;1.80;;
72408;SDS011;60402;48.082;11.628;2023-03-23T18:01:03;5.05;;;1.80;;
72408;SDS011;60402;48.082;11.628;2023-03-23T18:03:49;3.85;;;1.70;;
72408;SDS011;60402;48.082;11.628;2023-03-23T18:06:35;4.80;;;2.00;;
72408;SDS011;60402;48.082;11.628;2023-03-23T18:09:21;6.03;;;2.13;;
72408;SDS011;60402;48.082;11.628;2023-03-23T18:12:07;4.22;;;1.70;;
72408;SDS011;60402;48.082;11.628;2023-03-23T18:14:56;5.38;;;1.88;;
72408;SDS011;60402;48.082;11.628;2023-03-23T18:17:43;3.85;;;1.75;;